Time;durP1;ratioP1;P1;durP2;ratioP2;P2;SDS_P1;SDS_P2;PMS_P1;PMS_P2;Temp;Humidity;BMP_temperature;BMP_pressure;BME280_temperature;BME280_humidity;BME280_pressure;Samples;Min_cycle;Max_cycle;Signal;HPM_P1;HPM_P2
2024/03/12 00:01:41;;;;;;;8.30;7.10;;;11.50;99.90;;;;;;4922498;29;20466;-69
2024/03/12 00:04:10;;;;;;;9.30;7.33;;;11.50;99.90;;;;;;4922671;29;20459;-71
2024/03/12 00:06:37;;;;;;;8.80;7.90;;;11.50;99.90;;;;;;4890807;29;20965;-70
2024/03/12 00:09:09;;;;;;;13.53;7.97;;;11.50;99.90;;;;;;4906176;29;20505;-72
2024/03/12 00:11:36;;;;;;;9.17;7.30;;;11.50;99.90;;;;;;4922862;29;20576;-71
2024/03/12 00:14:04;;;;;;;9.73;7.70;;;11.50;99.90;;;;;;4889330;29;20560;-71
2024/03/12 00:16:40;;;;;;;12.50;8.20;;;11.50;99.90;;;;;;4928037;29;20490;-71
2024/03/12 00:19:09;;;;;;;9.43;7.20;;;11.50;99.90;;;;;;4905305;29;21133;-70
2024/03/12 00:21:37;;;;;;;10.10;8.47;;;11.50;99.90;;;;;;4905600;29;20487;-71
2024/03/12 00:24:06;;;;;;;10.63;8.17;;;11.50;99.90;;;;;;4905737;29;20440;-69
2024/03/12 00:26:32;;;;;;;10.63;8.90;;;11.50;99.90;;;;;;4923244;29;20452;-71
2024/03/12 00:28:59;;;;;;;10.57;8.43;;;11.50;99.90;;;;;;4889264;29;20440;-70
2024/03/12 00:31:27;;;;;;;10.40;9.00;;;11.50;99.90;;;;;;4894544;29;20461;-71
2024/03/12 00:33:55;;;;;;;9.87;8.23;;;11.80;99.90;;;;;;4907257;29;20456;-72
2024/03/12 00:36:23;;;;;;;14.13;10.73;;;11.50;99.90;;;;;;4906761;29;20440;-71
2024/03/12 00:38:49;;;;;;;13.17;10.77;;;11.50;99.90;;;;;;4923799;29;20977;-70
2024/03/12 00:41:15;;;;;;;12.50;10.20;;;11.50;99.90;;;;;;4909564;29;20567;-70
2024/03/12 00:43:52;;;;;;;14.47;11.00;;;11.50;99.90;;;;;;4906947;29;21028;-70
2024/03/12 00:46:18;;;;;;;13.90;10.20;;;11.50;99.90;;;;;;4919586;29;20462;-71
2024/03/12 00:48:45;;;;;;;15.03;11.23;;;11.50;99.90;;;;;;4925312;29;20420;-71
2024/03/12 00:51:12;;;;;;;17.77;13.30;;;11.50;99.90;;;;;;4923369;29;20708;-72
2024/03/12 00:53:39;;;;;;;18.30;13.10;;;11.50;99.90;;;;;;4906241;29;20574;-71
2024/03/12 00:56:05;;;;;;;19.97;14.00;;;11.50;99.90;;;;;;4923664;29;20460;-71
2024/03/12 00:58:33;;;;;;;17.73;14.23;;;11.50;99.90;;;;;;4924026;29;20436;-71
2024/03/12 01:01:03;;;;;;;24.90;15.40;;;11.50;99.90;;;;;;4905888;29;20503;-72
2024/03/12 01:03:38;;;;;;;28.50;18.40;;;11.50;99.90;;;;;;4922266;29;20879;-71
2024/03/12 01:06:05;;;;;;;25.10;16.90;;;11.50;99.90;;;;;;4923291;29;20424;-72
2024/03/12 01:08:33;;;;;;;26.10;19.07;;;11.50;99.90;;;;;;4907831;29;20455;-71
2024/03/12 01:10:59;;;;;;;26.53;18.77;;;11.40;99.90;;;;;;4922978;29;20491;-71
2024/03/12 01:13:27;;;;;;;31.37;20.33;;;11.40;99.90;;;;;;4922356;29;20499;-71
2024/03/12 01:15:54;;;;;;;34.00;20.60;;;11.40;99.90;;;;;;4923068;29;20551;-71
2024/03/12 01:18:20;;;;;;;30.27;20.83;;;11.40;99.90;;;;;;4923236;29;20444;-71
2024/03/12 01:20:50;;;;;;;31.27;20.53;;;11.40;99.90;;;;;;4910592;29;20476;-71
2024/03/12 01:23:16;;;;;;;38.30;22.90;;;11.40;99.90;;;;;;4926238;29;20548;-71
2024/03/12 01:25:46;;;;;;;37.00;23.17;;;11.40;99.90;;;;;;4903252;29;20440;-71
2024/03/12 01:28:12;;;;;;;35.37;22.40;;;11.40;99.90;;;;;;4922696;29;20444;-72
2024/03/12 01:30:44;;;;;;;31.93;21.37;;;11.40;99.90;;;;;;4918282;29;20468;-71
2024/03/12 01:33:13;;;;;;;33.70;22.07;;;11.40;99.90;;;;;;4893178;29;20476;-72
2024/03/12 01:35:39;;;;;;;38.63;24.50;;;11.40;99.90;;;;;;4925083;29;20444;-72
2024/03/12 01:38:05;;;;;;;42.47;24.13;;;11.40;99.90;;;;;;4923889;29;20448;-71
2024/03/12 01:40:33;;;;;;;40.83;25.20;;;11.40;99.90;;;;;;4924457;29;20487;-71
2024/03/12 01:43:01;;;;;;;35.70;24.20;;;11.40;99.90;;;;;;4921609;29;20879;-71
2024/03/12 01:45:30;;;;;;;40.87;23.00;;;11.40;99.90;;;;;;4925297;29;20920;-72
2024/03/12 01:47:58;;;;;;;36.33;22.90;;;11.40;99.90;;;;;;4923808;29;20436;-71
2024/03/12 01:50:27;;;;;;;40.47;25.13;;;11.40;99.90;;;;;;4889844;29;21137;-72
2024/03/12 01:53:06;;;;;;;36.10;24.33;;;11.40;99.90;;;;;;4924501;29;20610;-72
2024/03/12 01:55:43;;;;;;;35.80;23.07;;;11.40;99.90;;;;;;4906850;29;20860;-72
2024/03/12 01:58:15;;;;;;;37.87;24.10;;;11.40;99.90;;;;;;4920314;29;20872;-70
2024/03/12 02:00:45;;;;;;;39.67;24.40;;;11.40;99.90;;;;;;4925264;29;21046;-71
2024/03/12 02:03:11;;;;;;;35.37;23.97;;;11.40;99.90;;;;;;4921668;29;20526;-70
2024/03/12 02:05:36;;;;;;;36.57;24.20;;;11.40;99.90;;;;;;4928886;29;20790;-71
2024/03/12 02:08:03;;;;;;;36.67;23.90;;;11.40;99.90;;;;;;4926687;29;20427;-71
2024/03/12 02:10:32;;;;;;;38.20;24.20;;;11.40;99.90;;;;;;4925177;29;20443;-71
2024/03/12 02:12:58;;;;;;;39.83;24.70;;;11.40;99.90;;;;;;4909338;29;21038;-71
2024/03/12 02:15:25;;;;;;;38.30;24.40;;;11.30;99.90;;;;;;4911212;29;20469;-71
2024/03/12 02:17:53;;;;;;;34.90;24.37;;;11.40;99.90;;;;;;4925394;29;20468;-71
2024/03/12 02:20:21;;;;;;;37.40;25.50;;;11.40;99.90;;;;;;4911871;29;20904;-70
2024/03/12 02:22:53;;;;;;;36.23;21.87;;;11.40;99.90;;;;;;4878394;29;20432;-72
2024/03/12 02:25:23;;;;;;;36.90;23.20;;;11.40;99.90;;;;;;4924497;29;20515;-70
2024/03/12 02:27:50;;;;;;;34.00;22.73;;;11.30;99.90;;;;;;4909650;29;20440;-71
2024/03/12 02:30:16;;;;;;;38.50;24.50;;;11.30;99.90;;;;;;4909082;29;21046;-72
2024/03/12 02:32:47;;;;;;;35.80;23.97;;;11.30;99.90;;;;;;4877782;29;21053;-71
2024/03/12 02:35:15;;;;;;;32.47;23.20;;;11.40;99.90;;;;;;4926636;29;20856;-71
2024/03/12 02:37:41;;;;;;;37.90;25.87;;;11.30;99.90;;;;;;4925920;29;20452;-71
2024/03/12 02:40:12;;;;;;;39.00;22.17;;;11.30;99.90;;;;;;4927898;29;20463;-71
2024/03/12 02:42:41;;;;;;;39.77;24.53;;;11.40;99.90;;;;;;4893925;29;21083;-71
2024/03/12 02:45:20;;;;;;;39.87;25.10;;;11.40;99.90;;;;;;4924710;29;20470;-71
2024/03/12 02:47:47;;;;;;;33.43;23.57;;;11.30;99.90;;;;;;4909225;29;20432;-71
2024/03/12 02:50:18;;;;;;;35.47;23.20;;;11.40;99.90;;;;;;4925397;29;20456;-72
2024/03/12 02:52:49;;;;;;;39.57;23.47;;;11.30;99.90;;;;;;4908462;29;20830;-71
2024/03/12 02:55:19;;;;;;;33.63;22.90;;;11.30;99.90;;;;;;4908561;29;20444;-71
2024/03/12 02:57:47;;;;;;;34.43;24.27;;;11.40;99.90;;;;;;4925470;29;20519;-72
2024/03/12 03:00:19;;;;;;;37.37;23.97;;;11.30;99.90;;;;;;4908067;29;20511;-70
2024/03/12 03:02:48;;;;;;;33.63;21.47;;;11.30;99.90;;;;;;4922010;29;20440;-71
2024/03/12 03:05:15;;;;;;;38.60;22.53;;;11.30;99.90;;;;;;4922342;29;20429;-71
2024/03/12 03:07:44;;;;;;;34.93;22.90;;;11.30;99.90;;;;;;4926164;29;20428;-71
2024/03/12 03:10:10;;;;;;;31.93;21.50;;;11.40;99.90;;;;;;4908386;29;20959;-72
2024/03/12 03:12:36;;;;;;;33.03;21.93;;;11.30;99.90;;;;;;4907858;29;20439;-71
2024/03/12 03:15:05;;;;;;;28.63;20.53;;;11.30;99.90;;;;;;4907542;29;20458;-71
2024/03/12 03:17:33;;;;;;;35.07;20.33;;;10.80;99.90;;;;;;4892212;29;20436;-71
2024/03/12 03:19:59;;;;;;;29.10;18.93;;;11.30;99.90;;;;;;4894831;29;20911;-71
2024/03/12 03:22:25;;;;;;;25.60;18.30;;;11.30;99.90;;;;;;4929472;29;20437;-72
2024/03/12 03:24:52;;;;;;;29.10;19.80;;;11.30;99.90;;;;;;4925457;29;20424;-71
2024/03/12 03:27:19;;;;;;;25.07;18.30;;;11.30;99.90;;;;;;4925055;29;20815;-71
2024/03/12 03:29:49;;;;;;;27.07;18.93;;;11.30;99.90;;;;;;4924469;29;20462;-70
2024/03/12 03:32:20;;;;;;;25.70;18.20;;;11.30;99.90;;;;;;4907960;29;20436;-71
2024/03/12 03:34:49;;;;;;;26.63;17.50;;;11.30;99.90;;;;;;4891521;29;21047;-71
2024/03/12 03:37:15;;;;;;;28.73;17.40;;;11.30;99.90;;;;;;4924972;29;20444;-72
2024/03/12 03:39:41;;;;;;;28.17;18.60;;;11.30;99.90;;;;;;4892444;29;20463;-71
2024/03/12 03:42:07;;;;;;;23.30;16.97;;;11.30;99.90;;;;;;4910132;28;20786;-72
2024/03/12 03:44:32;;;;;;;21.60;16.03;;;11.00;99.90;;;;;;4908711;29;20510;-71
2024/03/12 03:46:59;;;;;;;24.27;15.50;;;11.30;99.90;;;;;;4907098;29;20943;-70
2024/03/12 03:49:24;;;;;;;20.50;16.03;;;11.30;99.90;;;;;;4907266;29;20464;-71
2024/03/12 03:51:51;;;;;;;23.20;15.87;;;11.20;99.90;;;;;;4925399;29;20436;-71
2024/03/12 03:54:20;;;;;;;20.63;14.90;;;11.30;99.90;;;;;;4908734;29;20841;-72
2024/03/12 03:56:47;;;;;;;20.10;14.57;;;11.30;99.90;;;;;;4926471;29;20943;-71
2024/03/12 03:59:16;;;;;;;20.47;14.97;;;11.30;99.90;;;;;;4907642;29;20428;-72
2024/03/12 04:01:42;;;;;;;20.07;14.27;;;11.30;99.90;;;;;;4891176;29;20494;-72
2024/03/12 04:04:15;;;;;;;19.37;13.93;;;11.30;99.90;;;;;;4909361;29;20935;-71
2024/03/12 04:06:44;;;;;;;20.63;14.20;;;11.30;99.90;;;;;;4907330;29;20440;-70
2024/03/12 04:09:15;;;;;;;19.97;13.37;;;11.30;99.90;;;;;;4907545;29;20440;-71
2024/03/12 04:11:41;;;;;;;17.40;13.17;;;11.30;99.90;;;;;;4929422;28;20436;-69
2024/03/12 04:14:10;;;;;;;17.17;12.97;;;11.30;99.90;;;;;;4922526;29;21384;-70
2024/03/12 04:16:36;;;;;;;16.33;12.83;;;11.20;99.90;;;;;;4921599;29;20454;-71
2024/03/12 04:19:04;;;;;;;22.07;14.13;;;11.20;99.90;;;;;;4922002;29;21200;-72
2024/03/12 04:21:31;;;;;;;16.43;12.77;;;11.20;99.90;;;;;;4907448;29;20938;-72
2024/03/12 04:23:57;;;;;;;15.87;12.27;;;11.20;99.90;;;;;;4892459;29;20523;-71
2024/03/12 04:26:28;;;;;;;17.97;12.93;;;11.20;99.90;;;;;;4874979;29;20835;-71
2024/03/12 04:28:57;;;;;;;18.87;13.33;;;11.20;99.90;;;;;;4908615;29;20757;-71
2024/03/12 04:31:23;;;;;;;17.13;13.30;;;11.20;99.90;;;;;;4923932;29;20515;-72
2024/03/12 04:33:52;;;;;;;16.67;11.80;;;11.20;99.90;;;;;;4924111;29;20953;-71
2024/03/12 04:36:23;;;;;;;17.80;12.90;;;11.20;99.90;;;;;;4925375;29;20851;-72
2024/03/12 04:38:49;;;;;;;14.37;11.87;;;11.20;99.90;;;;;;4906822;29;20865;-71
2024/03/12 04:41:20;;;;;;;15.40;12.03;;;11.20;99.90;;;;;;4923769;29;21050;-70
2024/03/12 04:43:49;;;;;;;16.67;13.13;;;11.20;99.90;;;;;;4915354;29;20437;-71
2024/03/12 04:46:15;;;;;;;15.30;11.77;;;11.10;99.90;;;;;;4906551;29;20432;-71
2024/03/12 04:48:44;;;;;;;17.33;11.47;;;11.20;99.90;;;;;;4920461;29;20425;-71
2024/03/12 04:51:12;;;;;;;15.83;11.97;;;11.20;99.90;;;;;;4923756;29;20516;-71
2024/03/12 04:53:38;;;;;;;14.90;11.80;;;11.20;99.90;;;;;;4925498;29;20483;-72
2024/03/12 04:56:07;;;;;;;14.80;11.33;;;11.20;99.90;;;;;;4923199;29;20440;-71
2024/03/12 04:58:35;;;;;;;13.67;11.53;;;11.20;99.90;;;;;;4922576;29;20429;-72
2024/03/12 05:01:01;;;;;;;17.20;12.20;;;11.20;99.90;;;;;;4922016;29;20530;-72
2024/03/12 05:03:27;;;;;;;14.77;10.77;;;11.20;99.90;;;;;;4891161;29;20447;-73
2024/03/12 05:05:58;;;;;;;18.17;12.20;;;11.20;99.90;;;;;;4907063;29;20907;-70
2024/03/12 05:08:24;;;;;;;16.47;11.70;;;11.20;99.90;;;;;;4922355;29;21383;-71
2024/03/12 05:10:53;;;;;;;17.50;13.00;;;11.20;99.90;;;;;;4922172;29;20464;-71
2024/03/12 05:13:21;;;;;;;13.83;11.37;;;11.20;99.90;;;;;;4907422;29;20481;-70
2024/03/12 05:15:47;;;;;;;16.27;11.50;;;11.20;99.90;;;;;;4908163;29;20464;-72
2024/03/12 05:18:13;;;;;;;16.23;12.30;;;11.20;99.90;;;;;;4901832;29;20459;-71
2024/03/12 05:20:40;;;;;;;15.80;10.80;;;11.20;99.90;;;;;;4891283;29;21098;-72
2024/03/12 05:23:10;;;;;;;15.43;11.67;;;11.20;99.90;;;;;;4908692;29;20497;-73
2024/03/12 05:25:39;;;;;;;13.97;11.53;;;11.20;99.90;;;;;;4910791;29;20451;-72
2024/03/12 05:28:09;;;;;;;13.43;11.70;;;11.20;99.90;;;;;;4923616;29;20439;-72
2024/03/12 05:30:36;;;;;;;16.90;12.13;;;11.20;99.90;;;;;;4924922;29;20454;-71
2024/03/12 05:33:04;;;;;;;14.17;11.67;;;11.20;99.90;;;;;;4923728;29;20463;-71
2024/03/12 05:35:33;;;;;;;14.60;11.47;;;11.20;99.90;;;;;;4892866;29;20935;-71
2024/03/12 05:38:02;;;;;;;17.80;12.17;;;11.20;99.90;;;;;;4938726;23;21014;-24
2024/03/12 05:48:49;;;;;;;14.60;11.30;;;11.10;99.90;;;;;;4943552;29;21228;-25
2024/03/12 05:51:19;;;;;;;13.87;10.93;;;11.10;99.90;;;;;;4944882;28;20847;-25
2024/03/12 05:53:48;;;;;;;15.10;11.40;;;11.10;99.90;;;;;;4944570;28;20677;-25
2024/03/12 05:56:14;;;;;;;14.20;10.27;;;11.10;99.90;;;;;;4945030;28;20498;-26
2024/03/12 05:58:40;;;;;;;15.50;10.90;;;11.10;99.90;;;;;;4945556;29;20427;-27
2024/03/12 06:01:09;;;;;;;16.73;10.83;;;11.10;99.90;;;;;;4945771;29;20471;-24
2024/03/12 06:03:37;;;;;;;13.50;10.20;;;11.10;99.90;;;;;;4929535;29;20459;-26
2024/03/12 06:06:09;;;;;;;14.40;10.57;;;11.10;99.90;;;;;;4928665;29;20466;-24
2024/03/12 06:08:38;;;;;;;13.13;10.47;;;11.10;99.90;;;;;;4945636;29;20441;-25
2024/03/12 06:11:04;;;;;;;16.43;11.47;;;11.10;99.90;;;;;;4945934;29;20463;-24
2024/03/12 06:13:32;;;;;;;12.67;10.27;;;11.10;99.90;;;;;;4956844;28;20430;-25
2024/03/12 06:15:59;;;;;;;12.13;9.97;;;11.10;99.90;;;;;;4930076;29;20458;-24
2024/03/12 06:18:28;;;;;;;11.33;9.20;;;11.10;99.90;;;;;;4930594;29;20438;-24
2024/03/12 06:20:55;;;;;;;12.47;9.77;;;11.10;99.90;;;;;;4947890;29;20534;-25
2024/03/12 06:23:22;;;;;;;11.80;10.57;;;11.10;99.90;;;;;;4949627;29;20462;-24
2024/03/12 06:25:51;;;;;;;13.80;10.30;;;11.10;99.90;;;;;;4949782;28;20447;-24
2024/03/12 06:28:21;;;;;;;12.47;9.63;;;11.10;99.90;;;;;;4929132;29;20471;-25
2024/03/12 06:30:48;;;;;;;12.93;11.00;;;11.10;99.90;;;;;;4928628;29;20510;-25
2024/03/12 06:33:17;;;;;;;14.53;10.40;;;11.10;99.90;;;;;;4945258;29;20439;-25
2024/03/12 06:35:47;;;;;;;16.93;11.17;;;11.10;99.90;;;;;;4927747;29;20447;-25
2024/03/12 06:38:15;;;;;;;12.20;10.17;;;11.10;99.90;;;;;;4944905;29;20483;-24
2024/03/12 06:40:42;;;;;;;11.27;10.03;;;11.10;99.90;;;;;;4927222;29;20566;-25
2024/03/12 06:43:13;;;;;;;13.20;10.17;;;11.10;99.90;;;;;;4944384;29;20435;-25
2024/03/12 06:45:41;;;;;;;11.90;9.30;;;11.10;99.90;;;;;;4928479;29;20447;-25
2024/03/12 06:48:07;;;;;;;12.73;10.53;;;11.10;99.90;;;;;;4947307;29;20428;-25
2024/03/12 06:50:33;;;;;;;11.83;9.57;;;11.10;99.90;;;;;;4928307;29;20604;-25
2024/03/12 06:52:59;;;;;;;13.47;9.20;;;11.10;99.90;;;;;;4928004;29;20542;-25
2024/03/12 06:55:27;;;;;;;11.30;9.70;;;11.10;99.90;;;;;;4946210;28;20459;-24
2024/03/12 06:58:07;;;;;;;11.70;9.33;;;11.10;99.90;;;;;;4928173;29;20468;-24
2024/03/12 07:00:36;;;;;;;15.00;9.70;;;11.10;99.90;;;;;;4927621;29;20503;-25
2024/03/12 07:03:07;;;;;;;13.00;10.40;;;11.10;99.90;;;;;;4926393;29;20475;-25
2024/03/12 07:05:36;;;;;;;13.80;9.90;;;11.10;99.90;;;;;;4946487;28;20451;-25
2024/03/12 07:08:09;;;;;;;13.20;10.17;;;11.00;99.90;;;;;;4946564;29;20451;-26
2024/03/12 07:10:38;;;;;;;11.87;9.60;;;11.10;99.90;;;;;;4945279;29;20609;-26
2024/03/12 07:13:07;;;;;;;12.37;10.00;;;11.00;99.90;;;;;;4911389;29;20441;-25
2024/03/12 07:15:35;;;;;;;13.07;10.90;;;11.10;99.90;;;;;;4944524;29;20537;-30
2024/03/12 07:18:03;;;;;;;11.73;9.80;;;11.00;99.90;;;;;;4944452;29;20430;-28
2024/03/12 07:20:29;;;;;;;14.07;9.57;;;11.00;99.90;;;;;;4944115;29;21261;-27
2024/03/12 07:22:58;;;;;;;14.77;10.23;;;11.00;99.90;;;;;;4924706;29;20498;-25
2024/03/12 07:25:30;;;;;;;14.63;10.97;;;11.10;99.90;;;;;;4925437;28;20447;-26
2024/03/12 07:28:06;;;;;;;14.70;10.40;;;11.10;99.90;;;;;;4942222;29;21017;-25
2024/03/12 07:30:33;;;;;;;13.10;11.17;;;11.00;99.90;;;;;;4940741;29;20502;-25
2024/03/12 07:33:05;;;;;;;13.90;10.47;;;11.00;99.90;;;;;;4942555;29;20435;-25
2024/03/12 07:35:33;;;;;;;12.93;10.27;;;11.00;99.90;;;;;;4942332;28;20572;-25
2024/03/12 07:38:00;;;;;;;16.30;11.70;;;11.00;99.90;;;;;;4926995;29;21088;-26
2024/03/12 07:40:26;;;;;;;16.43;10.40;;;11.00;99.90;;;;;;4947784;29;20475;-26
2024/03/12 07:42:52;;;;;;;18.53;11.40;;;11.10;99.90;;;;;;4930563;29;20423;-26
2024/03/12 07:45:18;;;;;;;12.10;10.80;;;11.00;99.90;;;;;;4948706;28;20911;-27
2024/03/12 07:47:48;;;;;;;12.67;10.40;;;11.00;99.90;;;;;;4930211;29;20506;-26
2024/03/12 07:50:15;;;;;;;15.10;10.30;;;11.00;99.90;;;;;;4930486;29;20483;-23
2024/03/12 07:52:43;;;;;;;13.50;11.07;;;11.00;99.90;;;;;;4930821;29;20462;-26
2024/03/12 07:55:09;;;;;;;13.27;10.40;;;11.00;99.90;;;;;;4930443;28;20435;-25
2024/03/12 07:57:35;;;;;;;14.50;11.27;;;11.00;99.90;;;;;;4946684;29;20419;-24
2024/03/12 08:00:14;;;;;;;18.03;11.03;;;11.00;99.90;;;;;;4946098;29;20430;-25
2024/03/12 08:02:40;;;;;;;13.20;10.00;;;11.00;99.90;;;;;;4927805;29;20419;-23
2024/03/12 08:05:07;;;;;;;12.93;10.13;;;11.00;99.90;;;;;;4946270;28;20962;-26
2024/03/12 08:07:34;;;;;;;18.67;11.70;;;11.00;99.90;;;;;;4926849;29;20490;-30
2024/03/12 08:10:05;;;;;;;13.07;9.90;;;11.00;99.90;;;;;;4945265;29;20458;-27
2024/03/12 08:12:31;;;;;;;17.57;9.70;;;11.00;99.90;;;;;;4926730;29;20434;-25
2024/03/12 08:14:58;;;;;;;15.10;10.87;;;11.00;99.90;;;;;;4944004;29;20543;-23
2024/03/12 08:17:26;;;;;;;17.77;11.27;;;11.00;99.90;;;;;;4944528;28;20446;-23
2024/03/12 08:19:55;;;;;;;17.40;11.00;;;11.00;99.90;;;;;;4927073;29;20470;-25
2024/03/12 08:22:23;;;;;;;14.27;11.33;;;11.00;99.90;;;;;;4943949;29;20430;-25
2024/03/12 08:24:54;;;;;;;14.87;9.97;;;11.00;99.90;;;;;;4944368;29;20486;-26
2024/03/12 08:27:23;;;;;;;12.43;10.70;;;11.00;99.90;;;;;;4944534;28;20515;-26
2024/03/12 08:29:50;;;;;;;16.13;12.00;;;11.00;99.90;;;;;;4926156;29;21033;-24
2024/03/12 08:32:17;;;;;;;17.27;12.17;;;11.00;99.90;;;;;;4926387;29;20579;-27
2024/03/12 08:34:43;;;;;;;18.03;11.03;;;11.00;99.90;;;;;;4926079;29;20735;-27
2024/03/12 08:37:11;;;;;;;17.37;10.70;;;11.00;99.90;;;;;;4943682;28;20914;-23
2024/03/12 08:39:39;;;;;;;18.50;10.60;;;11.00;99.90;;;;;;4947363;29;20407;-25
2024/03/12 08:42:09;;;;;;;17.80;12.50;;;11.00;99.90;;;;;;4911659;29;20514;-24
2024/03/12 08:44:39;;;;;;;15.77;11.70;;;11.00;99.90;;;;;;4943695;29;21042;-25
2024/03/12 08:47:05;;;;;;;14.10;10.67;;;11.00;99.90;;;;;;4941489;28;20587;-24
2024/03/12 08:49:33;;;;;;;17.00;11.20;;;11.00;99.90;;;;;;4924832;29;20428;-25
2024/03/12 08:52:03;;;;;;;16.23;11.13;;;11.00;99.90;;;;;;4924952;29;20482;-25
2024/03/12 08:54:29;;;;;;;18.97;11.83;;;11.00;99.90;;;;;;4925306;29;20431;-26
2024/03/12 08:56:56;;;;;;;19.47;12.20;;;11.00;99.90;;;;;;4942479;28;20857;-26
2024/03/12 08:59:25;;;;;;;19.00;12.20;;;11.00;99.90;;;;;;4944878;28;20443;-25
2024/03/12 09:02:00;;;;;;;18.00;12.43;;;11.00;99.90;;;;;;4941304;29;20470;-26
2024/03/12 09:04:30;;;;;;;23.73;13.80;;;11.00;99.90;;;;;;4924071;29;21124;-25
2024/03/12 09:07:00;;;;;;;19.43;12.33;;;11.00;99.90;;;;;;4941124;28;20502;-26
2024/03/12 09:09:26;;;;;;;18.20;12.30;;;11.00;99.90;;;;;;4923576;29;20449;-25
2024/03/12 09:11:56;;;;;;;19.83;13.43;;;11.00;99.90;;;;;;4923281;29;20530;-25
2024/03/12 09:14:25;;;;;;;16.80;12.07;;;11.00;99.90;;;;;;4938944;28;20430;-26
2024/03/12 09:16:52;;;;;;;19.40;11.77;;;11.00;99.90;;;;;;4923686;29;20447;-25
2024/03/12 09:19:18;;;;;;;20.43;13.60;;;11.00;99.90;;;;;;4924799;29;21016;-29
2024/03/12 09:21:44;;;;;;;19.30;13.20;;;11.00;99.90;;;;;;4924728;29;20993;-27
2024/03/12 09:24:10;;;;;;;22.60;13.97;;;10.90;99.90;;;;;;4924565;29;20948;-28
2024/03/12 09:26:36;;;;;;;18.00;13.40;;;11.00;99.90;;;;;;4941938;28;20443;-27
2024/03/12 09:29:05;;;;;;;25.40;14.40;;;11.00;99.90;;;;;;4924546;29;20440;-25
2024/03/12 09:31:33;;;;;;;18.90;14.40;;;10.90;99.90;;;;;;4925112;29;20514;-24
2024/03/12 09:34:01;;;;;;;19.10;13.80;;;11.00;99.90;;;;;;4924738;29;20428;-27
2024/03/12 09:36:29;;;;;;;20.43;13.57;;;10.90;99.90;;;;;;4925383;29;20447;-27
2024/03/12 09:38:56;;;;;;;21.20;13.27;;;11.00;99.90;;;;;;4927043;29;20373;-26
2024/03/12 09:41:24;;;;;;;19.67;13.80;;;11.00;99.90;;;;;;4946890;29;20477;-24
2024/03/12 09:43:53;;;;;;;19.80;13.50;;;10.90;99.90;;;;;;4941725;29;20911;-25
2024/03/12 09:46:21;;;;;;;24.50;14.70;;;11.00;99.90;;;;;;4941910;29;20450;-24
2024/03/12 09:48:51;;;;;;;22.70;16.00;;;10.90;99.90;;;;;;4924204;29;20431;-25
2024/03/12 09:51:17;;;;;;;19.00;13.53;;;11.20;99.90;;;;;;4942234;29;20455;-25
2024/03/12 09:53:46;;;;;;;20.43;14.10;;;11.00;99.90;;;;;;4942031;29;20427;-24
2024/03/12 09:56:15;;;;;;;19.07;13.37;;;10.90;99.90;;;;;;4941608;28;20455;-24
2024/03/12 09:58:43;;;;;;;22.13;16.23;;;11.00;99.90;;;;;;4940880;29;20856;-26
2024/03/12 10:01:12;;;;;;;23.23;15.77;;;11.00;99.90;;;;;;4940990;29;20475;-26
2024/03/12 10:03:38;;;;;;;22.23;14.70;;;11.00;99.90;;;;;;4924345;29;20438;-23
2024/03/12 10:06:06;;;;;;;25.40;15.37;;;11.00;99.90;;;;;;4940951;29;20447;-22
2024/03/12 10:08:43;;;;;;;19.47;14.80;;;11.00;99.90;;;;;;4940597;29;20838;-23
2024/03/12 10:11:19;;;;;;;24.70;15.73;;;11.00;99.90;;;;;;4923929;29;21293;-23
2024/03/12 10:13:56;;;;;;;24.27;17.63;;;10.90;99.90;;;;;;4941069;28;20522;-22
2024/03/12 10:16:27;;;;;;;22.13;15.40;;;11.00;99.90;;;;;;4938306;28;20546;-25
2024/03/12 10:19:14;;;;;;;20.30;15.10;;;11.00;99.90;;;;;;4907451;29;20470;-25
2024/03/12 10:21:44;;;;;;;21.90;14.90;;;10.90;99.90;;;;;;4924306;29;21089;-26
2024/03/12 10:24:17;;;;;;;19.53;14.70;;;10.90;99.90;;;;;;4918122;29;20930;-25
2024/03/12 10:26:46;;;;;;;28.23;17.60;;;10.90;99.90;;;;;;4911026;29;20829;-25
2024/03/12 10:29:18;;;;;;;24.00;16.50;;;10.90;99.90;;;;;;4944125;29;20446;-25
2024/03/12 10:31:45;;;;;;;24.07;16.37;;;10.90;99.90;;;;;;4944241;29;20454;-25
2024/03/12 10:34:17;;;;;;;22.73;16.30;;;10.90;99.90;;;;;;4943885;29;21082;-25
2024/03/12 10:36:45;;;;;;;22.37;15.33;;;11.00;99.90;;;;;;4944717;28;20962;-25
2024/03/12 10:39:12;;;;;;;18.87;15.00;;;10.90;99.90;;;;;;4943911;28;20454;-25
2024/03/12 10:41:45;;;;;;;21.83;14.87;;;11.00;99.90;;;;;;4926281;29;20860;-23
2024/03/12 10:44:11;;;;;;;19.40;15.07;;;10.90;99.90;;;;;;4926449;29;20828;-24
2024/03/12 10:46:41;;;;;;;18.57;14.50;;;11.00;99.90;;;;;;4926420;29;20989;-26
2024/03/12 10:49:10;;;;;;;21.27;14.77;;;10.90;99.90;;;;;;4943318;29;20796;-25
2024/03/12 10:51:40;;;;;;;22.50;15.13;;;10.90;99.90;;;;;;4944249;29;20423;-25
2024/03/12 10:54:13;;;;;;;22.07;14.40;;;11.00;99.90;;;;;;4929709;29;20518;-24
2024/03/12 10:56:46;;;;;;;21.17;13.60;;;11.00;99.90;;;;;;4946598;28;20466;-26
2024/03/12 10:59:12;;;;;;;22.83;15.27;;;11.00;99.90;;;;;;4943149;29;21002;-24
2024/03/12 11:01:40;;;;;;;20.17;15.17;;;10.90;99.90;;;;;;4943898;29;20482;-25
2024/03/12 11:04:09;;;;;;;20.90;15.10;;;11.00;99.90;;;;;;4925113;29;20475;-26
2024/03/12 11:06:39;;;;;;;24.73;15.53;;;11.00;99.90;;;;;;4942224;28;20467;-26
2024/03/12 11:09:07;;;;;;;20.53;14.97;;;11.00;99.90;;;;;;4942653;29;20439;-26
2024/03/12 11:11:34;;;;;;;19.30;13.87;;;11.00;99.90;;;;;;4942988;29;20431;-25
2024/03/12 11:14:02;;;;;;;20.90;14.03;;;10.90;99.90;;;;;;4925042;29;21213;-25
2024/03/12 11:16:35;;;;;;;20.20;14.80;;;11.00;99.90;;;;;;4942843;28;20539;-26
2024/03/12 11:19:18;;;;;;;19.97;14.17;;;11.00;99.90;;;;;;4924814;29;21296;-25
2024/03/12 11:21:49;;;;;;;20.30;14.53;;;11.00;99.90;;;;;;4925291;29;20511;-25
2024/03/12 11:24:32;;;;;;;24.83;15.43;;;11.00;99.90;;;;;;4925285;29;21329;-25
2024/03/12 11:27:00;;;;;;;20.80;14.40;;;11.00;99.90;;;;;;4941974;28;20852;-24
2024/03/12 11:30:10;;;;;;;20.73;14.67;;;11.00;99.90;;;;;;4924764;29;20624;-25
2024/03/12 11:32:50;;;;;;;18.83;13.97;;;11.00;99.90;;;;;;4923769;29;20443;-25
2024/03/12 11:35:17;;;;;;;21.60;14.37;;;11.00;99.90;;;;;;4924530;28;20443;-24
2024/03/12 11:37:58;;;;;;;23.80;14.50;;;11.00;99.90;;;;;;4957359;28;20485;-25
2024/03/12 11:40:26;;;;;;;28.23;15.50;;;11.00;99.90;;;;;;4962225;28;20724;-28
2024/03/12 11:42:54;;;;;;;20.17;14.63;;;11.00;99.90;;;;;;4962652;28;21322;-29
2024/03/12 11:45:47;;;;;;;21.40;15.30;;;11.00;99.90;;;;;;4944901;28;20419;-28
2024/03/12 11:48:19;;;;;;;21.03;13.40;;;11.00;99.90;;;;;;4964736;28;20846;-27
2024/03/12 11:50:54;;;;;;;19.03;14.40;;;11.00;99.90;;;;;;4946838;28;20438;-26
2024/03/12 11:53:30;;;;;;;22.13;14.97;;;11.00;99.90;;;;;;4966330;28;20855;-26
2024/03/12 11:56:05;;;;;;;19.43;14.50;;;11.00;99.90;;;;;;4966024;28;20442;-23
2024/03/12 11:58:48;;;;;;;21.47;13.97;;;11.00;99.90;;;;;;4949147;28;21314;-28
2024/03/12 12:01:21;;;;;;;23.63;15.90;;;11.00;99.90;;;;;;4967716;28;20462;-24
2024/03/12 12:03:59;;;;;;;25.10;16.47;;;11.00;99.90;;;;;;4946186;29;20941;-22
2024/03/12 12:06:30;;;;;;;21.03;14.27;;;11.00;99.90;;;;;;4941897;29;20573;-23
2024/03/12 12:09:05;;;;;;;29.20;18.50;;;11.00;99.90;;;;;;4944712;29;20630;-24
2024/03/12 12:11:34;;;;;;;22.63;15.30;;;11.00;99.90;;;;;;4942987;29;20418;-26
2024/03/12 12:14:01;;;;;;;25.97;16.83;;;11.00;99.90;;;;;;4942194;29;21249;-25
2024/03/12 12:16:28;;;;;;;22.97;15.73;;;11.00;99.90;;;;;;4941517;28;20501;-32
2024/03/12 12:19:09;;;;;;;24.70;16.40;;;11.00;99.90;;;;;;4923431;29;21050;-28
2024/03/12 12:21:35;;;;;;;23.63;16.53;;;11.00;99.90;;;;;;4907631;29;20475;-31
2024/03/12 12:24:02;;;;;;;23.67;16.40;;;11.00;99.90;;;;;;4941078;29;20431;-25
2024/03/12 12:26:30;;;;;;;26.83;17.00;;;11.00;99.90;;;;;;4923438;29;20462;-28
2024/03/12 12:28:57;;;;;;;24.10;16.40;;;11.00;99.90;;;;;;4939261;28;20427;-26
2024/03/12 12:31:28;;;;;;;27.03;17.80;;;11.00;99.90;;;;;;4940570;29;20810;-29
2024/03/12 12:33:58;;;;;;;23.90;16.17;;;10.90;99.90;;;;;;4941232;29;20525;-27
2024/03/12 12:36:33;;;;;;;23.30;16.67;;;11.00;99.90;;;;;;4940804;28;20466;-26
2024/03/12 12:39:03;;;;;;;25.10;16.90;;;11.00;99.90;;;;;;4945838;29;20473;-24
2024/03/12 12:41:34;;;;;;;26.03;17.10;;;11.10;99.90;;;;;;4944029;29;21057;-28
2024/03/12 12:44:15;;;;;;;28.90;17.50;;;11.10;99.90;;;;;;4923426;29;21037;-25
2024/03/12 12:46:43;;;;;;;23.97;16.90;;;11.00;99.90;;;;;;4922851;29;20462;-30